createdAt,value
2023-01-03T00:02:02.872Z,5.80
2023-01-03T00:04:29.877Z,7.20
2023-01-03T00:06:56.596Z,5.03
2023-01-03T00:09:25.246Z,8.03
2023-01-03T00:12:12.242Z,4.13
2023-01-03T00:14:42.411Z,4.50
2023-01-03T00:17:10.429Z,3.77
2023-01-03T00:19:40.580Z,7.73
2023-01-03T00:22:08.061Z,3.27
2023-01-03T00:24:35.959Z,6.17
2023-01-03T00:27:02.711Z,4.70
2023-01-03T00:29:30.010Z,8.93
2023-01-03T00:31:57.287Z,3.77
2023-01-03T00:34:24.338Z,3.50
2023-01-03T00:36:51.615Z,2.70
2023-01-03T00:39:18.492Z,6.27
2023-01-03T00:41:45.234Z,2.77
2023-01-03T00:44:12.613Z,7.10
2023-01-03T00:46:39.477Z,4.63
2023-01-03T00:49:07.211Z,4.50
2023-01-03T00:51:36.463Z,5.83
2023-01-03T00:54:05.571Z,9.53
2023-01-03T00:56:37.885Z,5.47
2023-01-03T00:59:06.920Z,5.17
2023-01-03T01:01:45.773Z,4.70
2023-01-03T01:04:15.793Z,3.60
2023-01-03T01:06:50.521Z,6.37
2023-01-03T01:09:23.518Z,5.13
2023-01-03T01:11:51.922Z,9.67
2023-01-03T01:14:23.686Z,5.83
2023-01-03T01:16:59.095Z,7.93
2023-01-03T01:19:33.546Z,5.30
2023-01-03T01:22:00.923Z,19.07
2023-01-03T01:24:27.665Z,6.03
2023-01-03T01:26:54.430Z,3.83
2023-01-03T01:29:22.647Z,2.23
2023-01-03T01:31:50.841Z,6.47
2023-01-03T01:34:18.199Z,9.07
2023-01-03T01:36:46.055Z,2.57
2023-01-03T01:39:17.654Z,5.40
2023-01-03T01:42:05.334Z,5.33
2023-01-03T01:44:48.010Z,3.73
2023-01-03T01:47:23.625Z,4.00
2023-01-03T01:49:56.584Z,8.37
2023-01-03T01:52:25.136Z,6.13
2023-01-03T01:54:54.580Z,4.90
2023-01-03T01:57:24.520Z,3.37
2023-01-03T01:59:52.275Z,5.53
2023-01-03T02:02:22.418Z,6.30
2023-01-03T02:04:52.849Z,4.57
2023-01-03T02:07:22.992Z,5.50
2023-01-03T02:09:53.457Z,6.60
2023-01-03T02:13:07.496Z,7.00
2023-01-03T02:15:52.847Z,4.23
2023-01-03T02:18:53.496Z,5.10
2023-01-03T02:21:32.449Z,4.20
2023-01-03T02:24:17.192Z,2.97
2023-01-03T02:26:55.608Z,5.73
2023-01-03T02:29:40.815Z,5.23
2023-01-03T02:32:18.423Z,3.27
2023-01-03T02:35:03.792Z,4.40
2023-01-03T02:37:53.483Z,6.00
2023-01-03T02:40:37.524Z,5.87
2023-01-03T02:43:37.560Z,7.23
2023-01-03T02:46:09.711Z,8.80
2023-01-03T02:48:39.509Z,7.53
2023-01-03T02:51:14.373Z,5.40
2023-01-03T02:53:46.564Z,7.20
2023-01-03T02:56:22.650Z,7.23
2023-01-03T02:58:56.913Z,8.67
2023-01-03T03:01:25.184Z,6.97
2023-01-03T03:03:53.034Z,8.00
2023-01-03T03:06:47.721Z,4.10
2023-01-03T03:09:14.432Z,2.00
2023-01-03T03:12:02.752Z,1.50
2023-01-03T03:14:43.926Z,2.20
2023-01-03T03:17:16.218Z,2.73
2023-01-03T03:20:06.288Z,1.23
2023-01-03T03:23:01.830Z,1.27
2023-01-03T03:25:33.709Z,1.90
2023-01-03T03:28:26.475Z,2.67
2023-01-03T03:30:56.724Z,1.70
2023-01-03T03:33:26.535Z,4.23
2023-01-03T03:35:59.197Z,1.60
2023-01-03T03:38:38.199Z,1.20
2023-01-03T03:41:54.639Z,0.37
2023-01-03T03:44:53.780Z,0.97
2023-01-03T03:47:36.596Z,1.53
2023-01-03T03:50:14.495Z,2.40
2023-01-03T03:52:46.632Z,0.93
2023-01-03T03:55:17.828Z,0.50
2023-01-03T03:57:53.294Z,0.60
2023-01-03T04:00:25.237Z,0.57
2023-01-03T04:02:54.617Z,1.43
2023-01-03T04:05:24.714Z,1.97
2023-01-03T04:07:51.899Z,0.40
2023-01-03T04:10:21.997Z,0.30
2023-01-03T04:12:50.058Z,0.60
2023-01-03T04:15:17.899Z,1.33
2023-01-03T04:17:44.631Z,0.90
2023-01-03T04:20:12.587Z,0.40
2023-01-03T04:22:39.411Z,2.63
2023-01-03T04:25:06.843Z,0.60
2023-01-03T04:27:34.260Z,1.00
2023-01-03T04:30:01.009Z,1.80
2023-01-03T04:32:27.956Z,0.70
2023-01-03T04:34:54.750Z,2.37
2023-01-03T04:37:22.298Z,0.60
2023-01-03T04:39:49.136Z,0.53
2023-01-03T04:42:34.756Z,0.77
2023-01-03T04:45:01.768Z,1.00
2023-01-03T04:47:28.513Z,2.10
2023-01-03T04:49:55.214Z,2.03
2023-01-03T04:52:22.141Z,1.20
2023-01-03T04:54:49.215Z,0.93
2023-01-03T04:57:16.227Z,4.23
2023-01-03T04:59:43.135Z,0.53
2023-01-03T05:02:10.184Z,1.13
2023-01-03T05:04:37.230Z,1.37
2023-01-03T05:07:04.351Z,2.30
2023-01-03T05:09:31.121Z,1.13
2023-01-03T05:11:58.015Z,3.23
2023-01-03T05:14:24.753Z,1.17
2023-01-03T05:16:52.247Z,1.00
2023-01-03T05:19:19.836Z,0.70
2023-01-03T05:22:05.032Z,1.00
2023-01-03T05:24:50.556Z,1.33
2023-01-03T05:27:18.099Z,2.43
2023-01-03T05:29:48.417Z,0.80
2023-01-03T05:32:15.204Z,2.67
2023-01-03T05:34:41.976Z,1.00
2023-01-03T05:37:09.428Z,2.50
2023-01-03T05:39:36.123Z,3.00
2023-01-03T05:42:03.031Z,1.50
2023-01-03T05:44:32.603Z,1.10
2023-01-03T05:47:00.451Z,1.00
2023-01-03T05:49:27.343Z,1.77
2023-01-03T05:51:54.483Z,1.53
2023-01-03T05:54:22.408Z,1.33
2023-01-03T05:56:50.586Z,2.03
2023-01-03T05:59:17.676Z,1.27
2023-01-03T06:01:44.559Z,0.93
2023-01-03T06:04:11.390Z,1.33
2023-01-03T06:06:39.008Z,1.37
2023-01-03T06:09:05.831Z,1.93
2023-01-03T06:11:32.830Z,1.13
2023-01-03T06:13:59.523Z,1.13
2023-01-03T06:16:44.676Z,1.60
2023-01-03T06:19:11.934Z,1.00
2023-01-03T06:21:41.488Z,2.43
2023-01-03T06:24:09.595Z,0.97
2023-01-03T06:26:36.886Z,2.90
2023-01-03T06:29:05.132Z,4.87
2023-01-03T06:31:32.282Z,1.17
2023-01-03T06:33:59.260Z,1.17
2023-01-03T06:36:26.382Z,1.20
2023-01-03T06:38:54.719Z,1.30
2023-01-03T06:41:21.901Z,1.07
2023-01-03T06:43:49.563Z,3.50
2023-01-03T06:46:35.346Z,1.20
2023-01-03T06:49:20.275Z,1.10
2023-01-03T06:52:10.390Z,2.57
2023-01-03T06:54:38.204Z,1.30
2023-01-03T06:57:06.029Z,2.97
2023-01-03T06:59:33.260Z,2.63
2023-01-03T07:02:00.167Z,1.27
2023-01-03T07:04:27.255Z,2.77
2023-01-03T07:06:55.101Z,3.17
2023-01-03T07:09:21.868Z,3.27
2023-01-03T07:11:48.715Z,4.63
2023-01-03T07:14:15.576Z,1.47
2023-01-03T07:16:45.982Z,1.87
2023-01-03T07:19:15.306Z,3.70
2023-01-03T07:21:42.858Z,1.30
2023-01-03T07:24:13.175Z,1.17
2023-01-03T07:26:40.282Z,0.87
2023-01-03T07:29:09.612Z,2.33
2023-01-03T07:31:40.992Z,3.03
2023-01-03T07:34:09.602Z,2.47
2023-01-03T07:36:36.474Z,2.50
2023-01-03T07:39:03.685Z,1.30
2023-01-03T07:41:49.045Z,1.77
2023-01-03T07:44:15.802Z,3.00
2023-01-03T07:46:42.514Z,2.20
2023-01-03T07:49:12.172Z,4.73
2023-01-03T07:51:39.937Z,3.93
2023-01-03T07:54:08.080Z,3.63
2023-01-03T07:56:35.639Z,2.67
2023-01-03T07:59:02.995Z,7.50
2023-01-03T08:01:30.628Z,3.23
2023-01-03T08:03:57.766Z,4.53
2023-01-03T08:06:25.926Z,3.23
2023-01-03T08:09:12.077Z,6.43
2023-01-03T08:11:58.424Z,3.77
2023-01-03T08:14:27.242Z,3.23
2023-01-03T08:16:55.922Z,4.77
2023-01-03T08:19:25.011Z,4.27
2023-01-03T08:21:51.869Z,5.00
2023-01-03T08:24:18.572Z,7.13
2023-01-03T08:26:45.449Z,5.30
2023-01-03T08:29:12.567Z,4.70
2023-01-03T08:31:44.680Z,2.90
2023-01-03T08:34:18.453Z,3.00
2023-01-03T08:36:55.707Z,2.90
2023-01-03T08:39:26.891Z,3.27
2023-01-03T08:42:06.785Z,4.53
2023-01-03T08:44:34.619Z,8.57
2023-01-03T08:47:06.933Z,2.80
2023-01-03T08:49:35.174Z,4.63
2023-01-03T08:52:02.019Z,3.97
2023-01-03T08:54:28.742Z,2.90
2023-01-03T08:56:56.172Z,5.40
2023-01-03T08:59:22.935Z,6.73
2023-01-03T09:01:50.415Z,3.57
2023-01-03T09:04:17.266Z,6.17
2023-01-03T09:06:44.092Z,6.23
2023-01-03T09:09:11.410Z,7.60
2023-01-03T09:11:38.555Z,4.37
2023-01-03T09:14:05.455Z,4.63
2023-01-03T09:16:32.259Z,6.20
2023-01-03T09:19:00.055Z,5.17
2023-01-03T09:21:28.076Z,5.23
2023-01-03T09:23:56.414Z,7.40
2023-01-03T09:26:23.239Z,8.33
2023-01-03T09:28:51.099Z,8.13
2023-01-03T09:31:18.067Z,5.13
2023-01-03T09:33:45.386Z,6.17
2023-01-03T09:36:12.138Z,4.70
2023-01-03T09:38:39.102Z,6.10
2023-01-03T09:41:17.554Z,4.83
2023-01-03T09:43:49.260Z,5.50
2023-01-03T09:46:22.627Z,5.70
2023-01-03T09:48:50.467Z,6.90
2023-01-03T09:51:45.168Z,3.70
2023-01-03T09:54:52.091Z,4.33
2023-01-03T09:57:43.008Z,5.80
2023-01-03T10:00:36.058Z,6.77
2023-01-03T10:03:31.292Z,3.47
2023-01-03T10:06:24.331Z,3.57
2023-01-03T10:08:51.243Z,3.83
2023-01-03T10:11:26.632Z,3.67
2023-01-03T10:14:08.231Z,8.63
2023-01-03T10:16:53.682Z,3.87
2023-01-03T10:20:05.331Z,4.53
2023-01-03T10:22:33.235Z,3.50
2023-01-03T10:25:09.303Z,3.90
2023-01-03T10:27:48.640Z,4.60
2023-01-03T10:30:23.379Z,3.40
2023-01-03T10:33:32.228Z,2.67
2023-01-03T10:35:59.569Z,5.93
2023-01-03T10:38:27.211Z,4.30
2023-01-03T10:40:59.361Z,3.03
2023-01-03T10:43:30.164Z,4.30
2023-01-03T10:46:06.808Z,2.77
2023-01-03T10:49:17.434Z,4.30
2023-01-03T10:51:42.506Z,2.57
2023-01-03T10:54:46.867Z,3.27
2023-01-03T10:57:35.201Z,3.90
2023-01-03T11:00:02.161Z,2.10
2023-01-03T11:02:29.065Z,5.03
2023-01-03T11:05:12.771Z,3.37
2023-01-03T11:07:54.862Z,3.40
2023-01-03T11:10:24.030Z,3.80
2023-01-03T11:12:51.616Z,2.03
2023-01-03T11:15:24.139Z,1.63
2023-01-03T11:17:54.133Z,2.03
2023-01-03T11:20:27.896Z,1.93
2023-01-03T11:23:02.246Z,2.40
2023-01-03T11:25:43.853Z,5.30
2023-01-03T11:28:36.156Z,1.60
2023-01-03T11:31:30.511Z,2.60
2023-01-03T11:34:13.356Z,2.33
2023-01-03T11:36:50.553Z,3.53
2023-01-03T11:39:28.318Z,2.00
2023-01-03T11:42:16.551Z,2.23
2023-01-03T11:44:43.233Z,2.50
2023-01-03T11:47:25.107Z,2.40
2023-01-03T11:50:11.416Z,3.40
2023-01-03T11:52:53.686Z,1.97
2023-01-03T11:55:48.732Z,2.73
2023-01-03T11:58:18.320Z,3.17
2023-01-03T12:00:58.703Z,2.17
2023-01-03T12:03:25.438Z,1.83
2023-01-03T12:06:13.647Z,3.67
2023-01-03T12:08:52.436Z,2.30
2023-01-03T12:11:50.014Z,1.73
2023-01-03T12:14:23.610Z,2.53
2023-01-03T12:17:13.571Z,3.57
2023-01-03T12:19:50.960Z,3.73
2023-01-03T12:22:20.772Z,2.33
2023-01-03T12:25:05.016Z,2.43
2023-01-03T12:27:55.538Z,2.37
2023-01-03T12:30:40.478Z,2.60
2023-01-03T12:33:22.119Z,4.07
2023-01-03T12:35:58.106Z,3.17
2023-01-03T12:38:34.274Z,2.47
2023-01-03T12:41:22.461Z,2.83
2023-01-03T12:43:54.574Z,2.57
2023-01-03T12:46:28.846Z,2.43
2023-01-03T12:49:48.256Z,2.30
2023-01-03T12:52:18.409Z,2.40
2023-01-03T12:54:53.641Z,4.43
2023-01-03T12:57:39.136Z,2.27
2023-01-03T13:00:23.579Z,6.53
2023-01-03T13:03:18.878Z,2.40
2023-01-03T13:06:23.892Z,2.87
2023-01-03T13:09:00.288Z,3.13
2023-01-03T13:11:44.007Z,3.57
2023-01-03T13:14:27.421Z,2.73
2023-01-03T13:17:18.293Z,4.30
2023-01-03T13:19:54.951Z,4.50
2023-01-03T13:22:46.697Z,4.77
2023-01-03T13:25:34.405Z,4.47
2023-01-03T13:28:24.815Z,7.20
2023-01-03T13:31:14.698Z,4.27
2023-01-03T13:34:09.729Z,5.83
2023-01-03T13:37:07.631Z,5.60
2023-01-03T13:39:46.288Z,4.07
2023-01-03T13:42:28.779Z,6.17
2023-01-03T13:45:15.849Z,6.30
2023-01-03T13:47:54.454Z,36.17
2023-01-03T13:50:29.418Z,18.23
2023-01-03T13:52:59.684Z,5.23
2023-01-03T13:56:22.706Z,6.60
2023-01-03T13:59:12.820Z,3.87
2023-01-03T14:01:56.786Z,5.57
2023-01-03T14:04:36.775Z,15.17
2023-01-03T14:07:03.911Z,23.50
2023-01-03T14:09:43.090Z,11.17
2023-01-03T14:12:31.185Z,5.17
2023-01-03T14:14:58.111Z,4.90
2023-01-03T14:17:33.270Z,5.27
2023-01-03T14:20:06.169Z,8.13
2023-01-03T14:22:48.386Z,8.30
2023-01-03T14:25:42.233Z,27.00
2023-01-03T14:28:29.479Z,13.07
2023-01-03T14:30:56.453Z,6.70
2023-01-03T14:33:25.783Z,3.23
2023-01-03T14:36:14.719Z,5.37
2023-01-03T14:38:48.430Z,5.63
2023-01-03T14:41:39.048Z,3.93
2023-01-03T14:44:15.216Z,5.40
2023-01-03T14:46:53.529Z,4.37
2023-01-03T14:49:33.051Z,6.87
2023-01-03T14:52:07.379Z,3.70
2023-01-03T14:54:36.117Z,6.47
2023-01-03T14:57:04.979Z,4.23
2023-01-03T14:59:33.438Z,5.83
2023-01-03T15:02:00.871Z,6.23
2023-01-03T15:04:28.867Z,5.47
2023-01-03T15:07:08.041Z,4.80
2023-01-03T15:09:38.882Z,4.30
2023-01-03T15:12:06.523Z,7.70
2023-01-03T15:14:36.536Z,3.83
2023-01-03T15:17:08.045Z,6.27
2023-01-03T15:19:37.705Z,4.03
2023-01-03T15:22:26.235Z,4.13
2023-01-03T15:25:04.972Z,5.20
2023-01-03T15:27:38.470Z,5.83
2023-01-03T15:30:23.824Z,4.00
2023-01-03T15:33:05.138Z,7.57
2023-01-03T15:35:31.924Z,6.10
2023-01-03T15:38:01.581Z,4.50
2023-01-03T15:40:31.621Z,6.97
2023-01-03T15:43:23.995Z,12.90
2023-01-03T15:46:00.699Z,14.37
2023-01-03T15:48:31.231Z,8.70
2023-01-03T15:51:00.251Z,8.10
2023-01-03T15:53:42.776Z,5.13
2023-01-03T15:56:35.585Z,4.23
2023-01-03T15:59:08.099Z,6.10
2023-01-03T16:01:35.379Z,6.80
2023-01-03T16:04:02.267Z,4.63
2023-01-03T16:06:29.274Z,5.17
2023-01-03T16:08:56.345Z,7.07
2023-01-03T16:11:31.400Z,8.23
2023-01-03T16:14:04.816Z,5.10
2023-01-03T16:16:36.383Z,8.07
2023-01-03T16:19:05.441Z,5.27
2023-01-03T16:21:32.804Z,7.17
2023-01-03T16:24:02.772Z,5.73
2023-01-03T16:26:29.953Z,6.27
2023-01-03T16:28:56.812Z,7.30
2023-01-03T16:31:31.903Z,5.50
2023-01-03T16:33:59.769Z,4.70
2023-01-03T16:36:37.442Z,7.27
2023-01-03T16:39:10.147Z,9.50
2023-01-03T16:41:36.874Z,8.97
2023-01-03T16:44:03.811Z,9.37
2023-01-03T16:46:31.774Z,6.23
2023-01-03T16:49:00.549Z,10.00
2023-01-03T16:51:32.684Z,7.73
2023-01-03T16:54:03.702Z,6.10
2023-01-03T16:56:31.454Z,9.57
2023-01-03T16:58:58.743Z,7.47
2023-01-03T17:01:26.321Z,10.30
2023-01-03T17:03:53.303Z,8.43
2023-01-03T17:06:37.393Z,11.07
2023-01-03T17:09:14.057Z,9.43
2023-01-03T17:11:41.111Z,7.30
2023-01-03T17:14:16.883Z,11.63
2023-01-03T17:16:45.622Z,9.07
2023-01-03T17:22:24.093Z,130.57
2023-01-03T17:24:52.271Z,102.37
2023-01-03T17:27:32.053Z,79.43
2023-01-03T17:30:03.622Z,37.73
2023-01-03T17:32:31.438Z,9.83
2023-01-03T17:34:58.706Z,11.40
2023-01-03T17:37:26.064Z,11.23
2023-01-03T17:39:56.034Z,20.60
2023-01-03T17:42:24.711Z,11.23
2023-01-03T17:45:13.281Z,15.03
2023-01-03T17:48:02.480Z,14.33
2023-01-03T17:50:32.556Z,10.77
2023-01-03T17:53:02.335Z,11.80
2023-01-03T17:55:31.485Z,12.77
2023-01-03T17:58:03.430Z,12.53
2023-01-03T18:00:32.056Z,12.67
2023-01-03T18:03:02.777Z,13.80
2023-01-03T18:05:30.842Z,10.47
2023-01-03T18:08:00.876Z,12.50
2023-01-03T18:10:46.908Z,11.73
2023-01-03T18:13:27.712Z,10.40
2023-01-03T18:15:55.994Z,14.23
2023-01-03T18:18:24.864Z,12.90
2023-01-03T18:20:52.766Z,13.60
2023-01-03T18:23:26.158Z,16.77
2023-01-03T18:25:53.378Z,12.90
2023-01-03T18:28:25.875Z,15.37
2023-01-03T18:30:53.637Z,12.40
2023-01-03T18:33:20.873Z,12.03
2023-01-03T18:35:48.635Z,14.03
2023-01-03T18:38:32.320Z,11.60
2023-01-03T18:41:05.089Z,14.40
2023-01-03T18:43:33.773Z,13.07
2023-01-03T18:46:01.239Z,15.10
2023-01-03T18:48:28.845Z,16.23
2023-01-03T18:50:59.515Z,12.73
2023-01-03T18:53:31.983Z,12.37
2023-01-03T19:00:26.411Z,16.43
2023-01-03T19:02:53.859Z,13.60
2023-01-03T19:05:21.645Z,13.47
2023-01-03T19:07:51.325Z,12.90
2023-01-03T19:10:21.564Z,14.57
2023-01-03T19:12:50.363Z,18.03
2023-01-03T19:15:23.632Z,15.00
2023-01-03T19:17:50.319Z,16.63
2023-01-03T19:20:23.178Z,18.13
2023-01-03T19:22:54.234Z,14.77
2023-01-03T19:25:30.367Z,13.63
2023-01-03T19:27:59.718Z,13.17
2023-01-03T19:30:41.794Z,15.43
2023-01-03T19:33:15.405Z,15.03
2023-01-03T19:35:43.600Z,16.10
2023-01-03T19:38:10.810Z,15.73
2023-01-03T19:40:40.764Z,16.70
2023-01-03T19:43:07.739Z,14.67
2023-01-03T19:45:41.618Z,17.57
2023-01-03T19:48:22.811Z,17.90
2023-01-03T19:50:50.820Z,15.40
2023-01-03T19:53:19.038Z,14.60
2023-01-03T19:55:48.896Z,16.47
2023-01-03T19:58:27.189Z,16.03
2023-01-03T20:00:55.091Z,15.23
2023-01-03T20:03:39.356Z,15.60
2023-01-03T20:06:10.046Z,14.30
2023-01-03T20:08:37.181Z,13.90
2023-01-03T20:11:04.392Z,16.10
2023-01-03T20:13:32.433Z,14.80
2023-01-03T20:16:02.352Z,13.63
2023-01-03T20:18:37.011Z,17.37
2023-01-03T20:21:08.482Z,17.50
2023-01-03T20:23:40.097Z,17.67
2023-01-03T20:26:13.814Z,15.10
2023-01-03T20:28:40.535Z,16.10
2023-01-03T20:31:09.170Z,19.43
2023-01-03T20:33:35.932Z,28.37
2023-01-03T20:36:16.251Z,23.03
2023-01-03T20:38:49.435Z,16.87
2023-01-03T20:41:18.073Z,28.23
2023-01-03T20:43:47.843Z,15.10
2023-01-03T20:46:21.289Z,14.73
2023-01-03T20:49:27.620Z,16.30
2023-01-03T20:51:54.881Z,16.03
2023-01-03T20:54:22.124Z,15.73
2023-01-03T20:56:49.385Z,14.67
2023-01-03T20:59:18.792Z,17.00
2023-01-03T21:01:49.101Z,14.67
2023-01-03T21:04:16.639Z,14.77
2023-01-03T21:06:46.339Z,15.20
2023-01-03T21:09:14.376Z,14.87
2023-01-03T21:11:41.874Z,13.63
2023-01-03T21:14:10.200Z,17.17
2023-01-03T21:16:46.486Z,18.87
2023-01-03T21:19:20.131Z,16.27
2023-01-03T21:21:52.668Z,16.13
2023-01-03T21:24:23.085Z,13.47
2023-01-03T21:26:50.837Z,13.17
2023-01-03T21:29:18.478Z,15.00
2023-01-03T21:31:45.720Z,16.43
2023-01-03T21:34:21.832Z,17.13
2023-01-03T21:36:49.599Z,16.53
2023-01-03T21:39:16.949Z,16.93
2023-01-03T21:42:03.755Z,15.97
2023-01-03T21:44:30.796Z,17.50
2023-01-03T21:46:57.974Z,13.67
2023-01-03T21:49:25.126Z,13.07
2023-01-03T21:51:52.016Z,13.93
2023-01-03T21:54:19.459Z,14.63
2023-01-03T21:56:47.009Z,13.33
2023-01-03T21:59:16.106Z,15.03
2023-01-03T22:02:03.821Z,16.13
2023-01-03T22:04:31.882Z,13.03
2023-01-03T22:07:02.508Z,14.63
2023-01-03T22:09:50.672Z,16.83
2023-01-03T22:12:19.387Z,14.37
2023-01-03T22:14:46.596Z,13.43
2023-01-03T22:17:14.730Z,15.97
2023-01-03T22:19:41.462Z,13.50
2023-01-03T22:22:08.384Z,14.77
2023-01-03T22:24:35.582Z,15.93
2023-01-03T22:27:02.532Z,13.70
2023-01-03T22:29:29.681Z,12.20
2023-01-03T22:31:56.503Z,13.97
2023-01-03T22:34:23.522Z,13.00
2023-01-03T22:36:50.845Z,14.03
2023-01-03T22:39:17.651Z,15.10
2023-01-03T22:41:45.141Z,14.83
2023-01-03T22:44:11.974Z,13.97
2023-01-03T22:46:39.188Z,14.60
2023-01-03T22:49:05.942Z,14.27
2023-01-03T22:51:32.650Z,14.57
2023-01-03T22:53:59.740Z,12.63
2023-01-03T22:56:26.458Z,14.30
2023-01-03T22:58:53.251Z,13.47
2023-01-03T23:01:27.968Z,12.03
2023-01-03T23:04:00.264Z,10.97
2023-01-03T23:06:29.496Z,11.77
2023-01-03T23:08:56.444Z,10.70
2023-01-03T23:11:44.644Z,9.73
2023-01-03T23:14:14.460Z,9.57
2023-01-03T23:16:41.341Z,12.10
2023-01-03T23:19:14.481Z,14.77
2023-01-03T23:21:42.116Z,10.90
2023-01-03T23:24:14.518Z,13.73
2023-01-03T23:26:41.317Z,10.67
2023-01-03T23:29:09.629Z,14.00
2023-01-03T23:31:36.653Z,10.97
2023-01-03T23:34:03.388Z,10.40
2023-01-03T23:36:30.148Z,11.03
2023-01-03T23:38:56.935Z,10.50
2023-01-03T23:41:23.649Z,10.70
2023-01-03T23:43:51.244Z,11.80
2023-01-03T23:46:20.465Z,8.67
2023-01-03T23:48:47.801Z,8.50
2023-01-03T23:51:15.819Z,9.20
2023-01-03T23:53:43.867Z,11.10
2023-01-03T23:56:16.842Z,8.47
2023-01-03T23:58:44.994Z,9.33
